Sioux Arrow — WAG6168 — position and weather

sailwx.info

Track history (hours):
 
Tides and Currents Weather Stations Pressure Air Temp Water Temp Dewpoint Dewpoint Depression Visibility Wind Speed Wind Dir Waves Ship Positions

Sioux Arrow

Owner: HARMON, JACK L, PORT ANGELES, WA. More information available from US FCC via Universal Licensing System and Coast Guard Vessel Documentation Center.

Last reported at 2017-Oct-20 12:48 UTC. Time now 2017-Oct-20 14:49 UTC.
Position N 48°31' W 122°36'.

Type: Port tender. MMSI: 366973370.

Date/timePositionNaut miles runAvg speedWind from/ knotsBaromVisibWave heightAir tempDewpointWater temp
2017-Oct-20 12:48N 48°31' W 122°36'4 9.7
2017-Oct-20 12:23N 48°34' W 122°34'2 6.3
2017-Oct-20 12:00N 48°37' W 122°34'4 0.4
2017-Oct-20 01:58N 48°33' W 122°34'3 2.0
2017-Oct-20 00:35N 48°31' W 122°36'2 7.9
2017-Oct-20 00:22N 48°31' W 122°34'0 0.1
2017-Oct-19 19:44N 48°31' W 122°35'313.9
2017-Oct-19 19:30N 48°35' W 122°34'1 2.8
2017-Oct-19 19:00N 48°36' W 122°34'5 0.2
2017-Oct-18 17:58N 48°31' W 122°35'5 8.2
2017-Oct-18 17:23N 48°36' W 122°33'0 0.0
2017-Oct-18 16:55N 48°35' W 122°33'0 0.1
2017-Oct-18 16:25N 48°35' W 122°33'0 0.2
2017-Oct-18 16:00N 48°36' W 122°33'4 0.3
2017-Oct-17 23:22N 48°31' W 122°35'411.5
2017-Oct-17 23:00N 48°35' W 122°33'1 1.6
2017-Oct-17 22:29N 48°35' W 122°34'0 0.1
2017-Oct-17 15:54N 48°35' W 122°34'3 0.3
2017-Oct-17 04:35N 48°31' W 122°35'314.3
2017-Oct-17 04:22N 48°35' W 122°34'1 2.6
2017-Oct-17 03:59N 48°35' W 122°34'4 0.8
2017-Oct-16 23:21N 48°32' W 122°34'513.2
2017-Oct-16 22:59N 48°37' W 122°34'2 1.3
2017-Oct-16 21:25N 48°34' W 122°34'2 1.5
2017-Oct-16 20:25N 48°36' W 122°32'4 2.7
2017-Oct-16 18:52N 48°31' W 122°34'1 0.0
2017-Oct-16 03:45N 48°31' W 122°35'414.2
2017-Oct-16 03:30N 48°35' W 122°34'1 0.1
2017-Oct-15 20:54N 48°34' W 122°34'3 7.1
2017-Oct-15 20:30N 48°37' W 122°34'4 0.2
2017-Oct-15 02:59N 48°33' W 122°34'4 8.8
2017-Oct-15 02:31N 48°37' W 122°34'0 0.1
2017-Oct-15 01:58N 48°37' W 122°34'0 0.2
2017-Oct-15 01:25N 48°37' W 122°34'0 0.0
2017-Oct-15 01:00N 48°37' W 122°34'0 0.1
2017-Oct-15 00:30N 48°37' W 122°34'7 0.9
2017-Oct-14 16:49N 48°31' W 122°36'1 3.6
2017-Oct-14 16:28N 48°31' W 122°35'5 9.9
2017-Oct-14 15:55N 48°37' W 122°34'6 3.9
2017-Oct-14 14:30N 48°31' W 122°35'611.2
2017-Oct-14 13:57N 48°37' W 122°34'7 0.2
2017-Oct-13 05:08N 48°31' W 122°36'310.4
2017-Oct-13 04:50N 48°34' W 122°34'2 5.3
2017-Oct-13 04:30N 48°35' W 122°34'4 0.2
2017-Oct-12 05:44N 48°32' W 122°34'314.4
2017-Oct-12 05:30N 48°35' W 122°34'5 0.4
2017-Oct-11 19:04N 48°31' W 122°36'0 0.0
2017-Oct-11 18:53N 48°31' W 122°36'0 0.0
2017-Oct-11 18:26N 48°31' W 122°36'3 0.1
2017-Oct-10 17:18N 48°34' W 122°34'413.3
2017-Oct-10 17:00N 48°37' W 122°33'  
Track history (hours):
 
Tides and Currents Weather Stations Pressure Air Temp Water Temp Dewpoint Dewpoint Depression Visibility Wind Speed Wind Dir Waves Ship Positions

Sioux Arrow

Owner: HARMON, JACK L, PORT ANGELES, WA. More information available from US FCC via Universal Licensing System and Coast Guard Vessel Documentation Center.

Last reported at 2017-Oct-20 12:48 UTC. Time now 2017-Oct-20 14:49 UTC.
Position N 48°31' W 122°36'.

Type: Port tender. MMSI: 366973370.

Date/timePositionNaut miles runAvg speedWind from/ knotsBaromVisibWave heightAir tempDewpointWater temp
2017-Oct-20 12:48N 48°31' W 122°36'4 9.7
2017-Oct-20 12:23N 48°34' W 122°34'2 6.3
2017-Oct-20 12:00N 48°37' W 122°34'4 0.4
2017-Oct-20 01:58N 48°33' W 122°34'3 2.0
2017-Oct-20 00:35N 48°31' W 122°36'2 7.9
2017-Oct-20 00:22N 48°31' W 122°34'0 0.1
2017-Oct-19 19:44N 48°31' W 122°35'313.9
2017-Oct-19 19:30N 48°35' W 122°34'1 2.8
2017-Oct-19 19:00N 48°36' W 122°34'5 0.2
2017-Oct-18 17:58N 48°31' W 122°35'5 8.2
2017-Oct-18 17:23N 48°36' W 122°33'0 0.0
2017-Oct-18 16:55N 48°35' W 122°33'0 0.1
2017-Oct-18 16:25N 48°35' W 122°33'0 0.2
2017-Oct-18 16:00N 48°36' W 122°33'4 0.3
2017-Oct-17 23:22N 48°31' W 122°35'411.5
2017-Oct-17 23:00N 48°35' W 122°33'1 1.6
2017-Oct-17 22:29N 48°35' W 122°34'0 0.1
2017-Oct-17 15:54N 48°35' W 122°34'3 0.3
2017-Oct-17 04:35N 48°31' W 122°35'314.3
2017-Oct-17 04:22N 48°35' W 122°34'1 2.6
2017-Oct-17 03:59N 48°35' W 122°34'4 0.8
2017-Oct-16 23:21N 48°32' W 122°34'513.2
2017-Oct-16 22:59N 48°37' W 122°34'2 1.3
2017-Oct-16 21:25N 48°34' W 122°34'2 1.5
2017-Oct-16 20:25N 48°36' W 122°32'4 2.7
2017-Oct-16 18:52N 48°31' W 122°34'1 0.0
2017-Oct-16 03:45N 48°31' W 122°35'414.2
2017-Oct-16 03:30N 48°35' W 122°34'1 0.1
2017-Oct-15 20:54N 48°34' W 122°34'3 7.1
2017-Oct-15 20:30N 48°37' W 122°34'4 0.2
2017-Oct-15 02:59N 48°33' W 122°34'4 8.8
2017-Oct-15 02:31N 48°37' W 122°34'0 0.1
2017-Oct-15 01:58N 48°37' W 122°34'0 0.2
2017-Oct-15 01:25N 48°37' W 122°34'0 0.0
2017-Oct-15 01:00N 48°37' W 122°34'0 0.1
2017-Oct-15 00:30N 48°37' W 122°34'7 0.9
2017-Oct-14 16:49N 48°31' W 122°36'1 3.6
2017-Oct-14 16:28N 48°31' W 122°35'5 9.9
2017-Oct-14 15:55N 48°37' W 122°34'6 3.9
2017-Oct-14 14:30N 48°31' W 122°35'611.2
2017-Oct-14 13:57N 48°37' W 122°34'7 0.2
2017-Oct-13 05:08N 48°31' W 122°36'310.4
2017-Oct-13 04:50N 48°34' W 122°34'2 5.3
2017-Oct-13 04:30N 48°35' W 122°34'4 0.2
2017-Oct-12 05:44N 48°32' W 122°34'314.4
2017-Oct-12 05:30N 48°35' W 122°34'5 0.4
2017-Oct-11 19:04N 48°31' W 122°36'0 0.0
2017-Oct-11 18:53N 48°31' W 122°36'0 0.0
2017-Oct-11 18:26N 48°31' W 122°36'3 0.1
2017-Oct-10 17:18N 48°34' W 122°34'413.3
2017-Oct-10 17:00N 48°37' W 122°33'  

Dump ship's entire track history